Somers, Montana
Current Conditions -  °F | °C
As of 2:48 PM on Wednesday 26 Nov 2014 (Local Time) from KGPI Reporting Station
Light Snow Light Snow  
Wind Chill: 33°   Ceiling: 900
Heat Index: 33°   Visibility: 1.7mi
Dew Point: 32°   Wind: 0mph
Humidity: 96%   Direction: NA
Pressure: 30.13"   Gusts: NA
Location:  48.08°N, 114.23°W
Report Text: KGPI 262148Z 00000KT 1 3/4SM -SN BR OVC009 01/00 A3013 RMK AO2 P0001 T00060000
Loading
Personal Weather Stations






























Interactive Weather Map New forecast layout! Learn more

10-Day Weather Forecast

Advertisements
Track Severe Weather on mobile